createdAt,value
2022-11-28T00:01:30.719Z,5.37
2022-11-28T00:03:58.643Z,6.67
2022-11-28T00:06:27.263Z,7.10
2022-11-28T00:08:56.137Z,6.20
2022-11-28T00:11:25.444Z,6.47
2022-11-28T00:13:53.548Z,7.07
2022-11-28T00:16:23.132Z,5.63
2022-11-28T00:18:52.179Z,5.50
2022-11-28T00:21:20.964Z,7.17
2022-11-28T00:23:49.928Z,5.93
2022-11-28T00:26:20.634Z,6.83
2022-11-28T00:28:50.295Z,7.33
2022-11-28T00:31:20.479Z,6.97
2022-11-28T00:33:48.728Z,5.93
2022-11-28T00:36:16.865Z,6.83
2022-11-28T00:38:45.233Z,6.00
2022-11-28T00:41:15.129Z,6.97
2022-11-28T00:43:43.763Z,5.87
2022-11-28T00:46:14.543Z,6.97
2022-11-28T00:48:42.787Z,5.70
2022-11-28T00:51:13.473Z,5.50
2022-11-28T00:53:42.836Z,5.17
2022-11-28T00:56:12.257Z,8.10
2022-11-28T00:58:41.157Z,5.70
2022-11-28T01:01:09.824Z,6.23
2022-11-28T01:03:39.836Z,6.33
2022-11-28T01:06:09.255Z,5.80
2022-11-28T01:08:38.078Z,5.97
2022-11-28T01:11:12.210Z,6.03
2022-11-28T01:13:40.488Z,6.20
2022-11-28T01:16:09.575Z,5.37
2022-11-28T01:18:38.999Z,5.13
2022-11-28T01:21:07.738Z,6.07
2022-11-28T01:23:35.894Z,5.40
2022-11-28T01:26:04.823Z,6.60
2022-11-28T01:28:32.707Z,5.03
2022-11-28T01:31:05.594Z,5.00
2022-11-28T01:33:33.532Z,5.43
2022-11-28T01:36:03.119Z,5.40
2022-11-28T01:38:31.537Z,5.03
2022-11-28T01:40:59.367Z,4.80
2022-11-28T01:43:27.305Z,7.30
2022-11-28T01:45:55.431Z,5.60
2022-11-28T01:48:27.176Z,5.70
2022-11-28T01:50:59.474Z,5.30
2022-11-28T01:53:31.637Z,5.77
2022-11-28T01:56:03.235Z,5.27
2022-11-28T01:58:33.777Z,5.00
2022-11-28T02:01:01.872Z,5.53
2022-11-28T02:03:34.570Z,5.13
2022-11-28T02:06:02.899Z,5.10
2022-11-28T02:08:35.865Z,4.90
2022-11-28T02:11:20.409Z,5.43
2022-11-28T02:13:59.376Z,5.20
2022-11-28T02:16:44.474Z,4.90
2022-11-28T02:19:53.182Z,5.27
2022-11-28T02:22:25.819Z,4.60
2022-11-28T02:25:11.289Z,4.60
2022-11-28T02:28:02.258Z,5.43
2022-11-28T02:30:37.651Z,5.80
2022-11-28T02:33:16.102Z,4.60
2022-11-28T02:36:00.205Z,4.50
2022-11-28T02:38:42.988Z,4.20
2022-11-28T02:41:20.246Z,4.23
2022-11-28T02:43:56.958Z,4.13
2022-11-28T02:46:31.165Z,3.73
2022-11-28T02:49:06.091Z,3.80
2022-11-28T02:51:38.906Z,3.70
2022-11-28T02:54:11.205Z,4.17
2022-11-28T02:56:39.248Z,3.70
2022-11-28T02:59:46.653Z,3.53
2022-11-28T03:02:18.484Z,3.50
2022-11-28T03:04:53.257Z,2.87
2022-11-28T03:07:35.026Z,3.40
2022-11-28T03:10:15.550Z,3.03
2022-11-28T03:12:54.161Z,3.63
2022-11-28T03:15:27.955Z,3.10
2022-11-28T03:18:03.060Z,3.00
2022-11-28T03:20:42.872Z,3.00
2022-11-28T03:23:17.074Z,3.30
2022-11-28T03:25:59.041Z,2.90
2022-11-28T03:28:31.871Z,2.90
2022-11-28T03:31:03.883Z,2.83
2022-11-28T03:33:35.790Z,2.87
2022-11-28T03:36:08.451Z,2.67
2022-11-28T03:38:39.433Z,2.90
2022-11-28T03:41:10.571Z,2.70
2022-11-28T03:43:43.900Z,2.90
2022-11-28T03:46:17.138Z,3.70
2022-11-28T03:48:48.424Z,2.80
2022-11-28T03:51:21.731Z,2.93
2022-11-28T03:53:55.109Z,2.83
2022-11-28T03:56:28.035Z,3.20
2022-11-28T03:59:01.429Z,3.10
2022-11-28T04:01:33.759Z,3.10
2022-11-28T04:04:12.200Z,3.40
2022-11-28T04:06:51.904Z,3.40
2022-11-28T04:09:24.445Z,3.10
2022-11-28T04:11:56.382Z,3.23
2022-11-28T04:14:29.498Z,4.47
2022-11-28T04:17:04.445Z,3.63
2022-11-28T04:19:37.875Z,4.30
2022-11-28T04:22:14.099Z,3.80
2022-11-28T04:24:47.050Z,4.47
2022-11-28T04:27:19.212Z,4.40
2022-11-28T04:29:49.586Z,4.43
2022-11-28T04:32:20.283Z,4.33
2022-11-28T04:34:52.311Z,4.67
2022-11-28T04:37:23.812Z,4.40
2022-11-28T04:39:53.123Z,5.80
2022-11-28T04:42:24.406Z,4.97
2022-11-28T04:44:56.264Z,5.73
2022-11-28T04:47:24.988Z,5.13
2022-11-28T04:49:54.229Z,6.17
2022-11-28T04:52:30.651Z,5.80
2022-11-28T04:55:04.564Z,6.10
2022-11-28T04:57:37.239Z,7.83
2022-11-28T05:00:08.913Z,6.80
2022-11-28T05:02:38.633Z,7.77
2022-11-28T05:05:10.476Z,6.47
2022-11-28T05:07:39.748Z,7.37
2022-11-28T05:10:08.959Z,8.27
2022-11-28T05:12:37.001Z,8.97
2022-11-28T05:15:05.933Z,7.33
2022-11-28T05:17:37.717Z,8.03
2022-11-28T05:20:09.472Z,7.87
2022-11-28T05:22:38.727Z,8.40
2022-11-28T05:25:08.056Z,9.13
2022-11-28T05:27:35.989Z,8.97
2022-11-28T05:30:04.203Z,8.90
2022-11-28T05:32:32.369Z,9.03
2022-11-28T05:35:00.471Z,9.33
2022-11-28T05:37:28.425Z,13.50
2022-11-28T05:39:57.691Z,9.97
2022-11-28T05:42:26.222Z,9.60
2022-11-28T05:44:54.168Z,10.60
2022-11-28T05:47:23.806Z,9.57
2022-11-28T05:49:51.982Z,10.30
2022-11-28T05:52:19.953Z,10.77
2022-11-28T05:54:47.796Z,12.10
2022-11-28T05:57:16.979Z,12.00
2022-11-28T05:59:45.295Z,9.83
2022-11-28T06:02:13.428Z,10.60
2022-11-28T06:04:41.992Z,11.10
2022-11-28T06:07:10.087Z,11.87
2022-11-28T06:09:37.998Z,15.97
2022-11-28T06:12:06.096Z,10.63
2022-11-28T06:14:35.479Z,13.37
2022-11-28T06:17:03.357Z,11.17
2022-11-28T06:19:31.308Z,9.43
2022-11-28T06:21:59.211Z,11.23
2022-11-28T06:24:27.285Z,10.07
2022-11-28T06:26:55.222Z,10.73
2022-11-28T06:29:23.153Z,9.60
2022-11-28T06:31:52.548Z,9.50
2022-11-28T06:34:20.423Z,9.80
2022-11-28T06:36:48.296Z,12.33
2022-11-28T06:39:17.870Z,12.10
2022-11-28T06:41:46.131Z,9.37
2022-11-28T06:44:15.257Z,11.50
2022-11-28T06:46:43.864Z,9.47
2022-11-28T06:49:13.902Z,9.43
2022-11-28T06:51:42.404Z,11.47
2022-11-28T06:54:10.455Z,8.60
2022-11-28T06:56:38.337Z,9.03
2022-11-28T06:59:06.249Z,8.97
2022-11-28T07:01:35.216Z,8.93
2022-11-28T07:04:03.161Z,10.47
2022-11-28T07:06:32.377Z,9.53
2022-11-28T07:09:00.489Z,8.77
2022-11-28T07:11:29.896Z,8.03
2022-11-28T07:14:01.514Z,10.10
2022-11-28T07:16:32.005Z,8.23
2022-11-28T07:19:01.210Z,8.53
2022-11-28T07:21:29.836Z,8.57
2022-11-28T07:23:59.705Z,7.90
2022-11-28T07:26:27.749Z,7.80
2022-11-28T07:28:58.143Z,8.20
2022-11-28T07:31:28.753Z,7.80
2022-11-28T07:33:56.677Z,8.33
2022-11-28T07:36:26.295Z,8.27
2022-11-28T07:38:56.526Z,8.33
2022-11-28T07:41:27.227Z,10.17
2022-11-28T07:43:57.499Z,7.87
2022-11-28T07:46:26.401Z,8.80
2022-11-28T07:48:54.673Z,9.30
2022-11-28T07:51:24.441Z,9.67
2022-11-28T07:53:53.007Z,9.50
2022-11-28T07:56:22.317Z,9.83
2022-11-28T07:58:51.961Z,10.47
2022-11-28T08:01:21.807Z,10.23
2022-11-28T08:03:50.454Z,9.93
2022-11-28T08:06:20.423Z,10.47
2022-11-28T08:08:48.688Z,8.80
2022-11-28T08:11:18.725Z,9.20
2022-11-28T08:13:47.108Z,9.90
2022-11-28T08:16:18.959Z,8.87
2022-11-28T08:18:47.710Z,9.77
2022-11-28T08:21:18.070Z,10.73
2022-11-28T08:23:46.331Z,8.93
2022-11-28T08:26:16.716Z,10.60
2022-11-28T08:28:45.365Z,10.73
2022-11-28T08:31:15.207Z,10.50
2022-11-28T08:33:45.850Z,10.40
2022-11-28T08:36:15.752Z,10.63
2022-11-28T08:39:02.972Z,9.53
2022-11-28T08:41:34.077Z,12.40
2022-11-28T08:44:01.908Z,11.27
2022-11-28T08:46:29.865Z,11.57
2022-11-28T08:49:04.176Z,11.80
2022-11-28T08:51:32.777Z,13.00
2022-11-28T08:54:00.801Z,10.70
2022-11-28T08:56:29.386Z,12.37
2022-11-28T08:58:57.331Z,12.17
2022-11-28T09:01:27.442Z,15.30
2022-11-28T09:03:56.901Z,13.97
2022-11-28T09:06:26.305Z,12.97
2022-11-28T09:08:54.648Z,13.53
2022-11-28T09:11:23.685Z,14.50
2022-11-28T09:13:51.638Z,14.80
2022-11-28T09:16:19.595Z,15.73
2022-11-28T09:18:47.576Z,13.97
2022-11-28T09:21:16.673Z,16.87
2022-11-28T09:23:46.255Z,16.03
2022-11-28T09:26:16.398Z,16.93
2022-11-28T09:28:44.866Z,17.00
2022-11-28T09:31:13.519Z,18.87
2022-11-28T09:33:41.909Z,18.60
2022-11-28T09:36:11.757Z,17.23
2022-11-28T09:38:40.076Z,16.07
2022-11-28T09:41:40.608Z,15.73
2022-11-28T09:44:15.530Z,18.50
2022-11-28T09:46:45.216Z,16.20
2022-11-28T09:49:23.291Z,17.87
2022-11-28T09:51:57.590Z,17.80
2022-11-28T09:54:37.282Z,18.63
2022-11-28T09:57:13.840Z,19.27
2022-11-28T09:59:42.177Z,21.23
2022-11-28T10:02:24.428Z,19.20
2022-11-28T10:05:02.629Z,23.60
2022-11-28T10:07:39.028Z,23.00
2022-11-28T10:10:18.164Z,16.67
2022-11-28T10:12:57.936Z,19.63
2022-11-28T10:15:42.618Z,20.57
2022-11-28T10:18:21.903Z,20.97
2022-11-28T10:20:55.221Z,18.70
2022-11-28T10:23:27.748Z,18.70
2022-11-28T10:25:58.357Z,17.57
2022-11-28T10:28:31.624Z,20.60
2022-11-28T10:31:05.365Z,19.80
2022-11-28T10:33:38.082Z,22.47
2022-11-28T10:36:07.359Z,19.80
2022-11-28T10:38:37.127Z,21.00
2022-11-28T10:41:13.714Z,21.87
2022-11-28T10:43:48.516Z,20.10
2022-11-28T10:46:44.399Z,24.17
2022-11-28T10:49:26.477Z,22.63
2022-11-28T10:52:04.322Z,24.33
2022-11-28T10:54:58.568Z,22.33
2022-11-28T10:57:32.569Z,25.67
2022-11-28T11:00:06.610Z,24.83
2022-11-28T11:02:39.504Z,24.63
2022-11-28T11:05:13.063Z,25.80
2022-11-28T11:07:45.325Z,25.23
2022-11-28T11:10:18.096Z,27.87
2022-11-28T11:12:47.068Z,23.37
2022-11-28T11:15:25.525Z,30.07
2022-11-28T11:17:53.428Z,27.37
2022-11-28T11:20:30.511Z,26.87
2022-11-28T11:22:59.787Z,28.40
2022-11-28T11:25:29.671Z,28.47
2022-11-28T11:28:00.831Z,27.63
2022-11-28T11:30:32.057Z,28.27
2022-11-28T11:33:01.979Z,27.27
2022-11-28T11:35:32.764Z,27.10
2022-11-28T11:38:17.954Z,29.27
2022-11-28T11:40:46.216Z,27.57
2022-11-28T11:43:30.675Z,30.07
2022-11-28T11:46:11.688Z,28.83
2022-11-28T11:48:41.284Z,29.40
2022-11-28T11:51:22.575Z,33.77
2022-11-28T11:54:00.404Z,31.63
2022-11-28T11:56:30.982Z,33.47
2022-11-28T11:59:03.356Z,35.73
2022-11-28T12:01:34.631Z,31.87
2022-11-28T12:04:23.808Z,33.23
2022-11-28T12:06:56.568Z,36.30
2022-11-28T12:09:29.661Z,34.93
2022-11-28T12:12:01.426Z,34.47
2022-11-28T12:14:32.430Z,32.10
2022-11-28T12:20:29.986Z,33.57
2022-11-28T12:23:11.855Z,34.07
2022-11-28T12:25:48.211Z,35.67
2022-11-28T12:28:28.197Z,33.03
2022-11-28T12:31:08.366Z,34.80
2022-11-28T12:33:48.531Z,36.87
2022-11-28T12:36:25.557Z,33.23
2022-11-28T12:39:17.614Z,34.37
2022-11-28T12:42:05.926Z,33.90
2022-11-28T12:44:44.765Z,33.57
2022-11-28T12:47:20.140Z,33.50
2022-11-28T12:49:58.269Z,34.13
2022-11-28T12:52:34.859Z,36.63
2022-11-28T12:55:23.084Z,38.10
2022-11-28T12:57:58.762Z,31.13
2022-11-28T13:00:29.752Z,33.57
2022-11-28T13:03:11.113Z,30.57
2022-11-28T13:05:54.194Z,31.63
2022-11-28T13:08:48.140Z,30.63
2022-11-28T13:11:34.169Z,32.47
2022-11-28T13:14:11.171Z,37.50
2022-11-28T13:16:47.607Z,35.67
2022-11-28T13:19:28.501Z,36.87
2022-11-28T13:22:06.313Z,33.37
2022-11-28T13:24:40.320Z,36.10
2022-11-28T13:27:14.535Z,35.57
2022-11-28T13:29:48.426Z,34.67
2022-11-28T13:32:22.564Z,34.17
2022-11-28T13:34:51.451Z,31.13
2022-11-28T13:40:24.542Z,35.93
2022-11-28T13:43:06.537Z,35.10
2022-11-28T13:45:39.270Z,33.23
2022-11-28T13:51:31.846Z,31.23
2022-11-28T13:54:39.863Z,31.33
2022-11-28T13:57:19.435Z,32.93
2022-11-28T13:59:52.748Z,28.47
2022-11-28T14:02:26.629Z,30.67
2022-11-28T14:04:54.708Z,32.30
2022-11-28T14:07:28.721Z,29.20
2022-11-28T14:10:15.588Z,25.20
2022-11-28T14:12:54.719Z,30.33
2022-11-28T14:15:31.624Z,30.50
2022-11-28T14:18:54.541Z,32.37
2022-11-28T14:21:19.395Z,28.20
2022-11-28T14:23:54.075Z,32.93
2022-11-28T14:26:28.091Z,30.73
2022-11-28T14:28:57.924Z,30.30
2022-11-28T14:31:30.832Z,27.83
2022-11-28T14:34:00.907Z,30.70
2022-11-28T14:36:30.733Z,29.07
2022-11-28T14:39:12.885Z,27.30
2022-11-28T14:42:43.854Z,30.53
2022-11-28T14:45:42.863Z,26.40
2022-11-28T14:48:30.375Z,29.73
2022-11-28T14:51:01.925Z,27.83
2022-11-28T14:53:54.533Z,28.63
2022-11-28T14:56:27.720Z,28.37
2022-11-28T14:58:59.139Z,28.60
2022-11-28T15:01:42.043Z,25.23
2022-11-28T15:04:37.425Z,27.73
2022-11-28T15:07:11.667Z,24.87
2022-11-28T15:09:47.176Z,26.83
2022-11-28T15:12:22.233Z,29.47
2022-11-28T15:14:58.777Z,28.43
2022-11-28T15:17:30.887Z,29.97
2022-11-28T15:20:03.607Z,28.17
2022-11-28T15:22:33.429Z,25.77
2022-11-28T15:25:01.423Z,25.03
2022-11-28T15:27:29.519Z,22.70
2022-11-28T15:29:58.906Z,25.70
2022-11-28T15:32:30.879Z,25.70
2022-11-28T15:35:01.835Z,26.80
2022-11-28T15:37:32.021Z,29.30
2022-11-28T15:40:01.834Z,23.00
2022-11-28T15:42:32.212Z,25.90
2022-11-28T15:45:06.302Z,23.37
2022-11-28T15:47:35.905Z,23.70
2022-11-28T15:50:14.471Z,25.60
2022-11-28T15:52:53.146Z,25.00
2022-11-28T15:55:21.222Z,23.87
2022-11-28T15:57:49.169Z,26.90
2022-11-28T16:00:19.903Z,22.50
2022-11-28T16:02:49.627Z,25.73
2022-11-28T16:05:21.668Z,23.63
2022-11-28T16:07:51.825Z,26.33
2022-11-28T16:10:25.247Z,27.77
2022-11-28T16:13:00.119Z,27.83
2022-11-28T16:15:29.403Z,25.23
2022-11-28T16:17:59.747Z,24.77
2022-11-28T16:20:29.611Z,24.93
2022-11-28T16:23:02.577Z,25.00
2022-11-28T16:25:31.196Z,26.20
2022-11-28T16:27:59.788Z,27.77
2022-11-28T16:30:36.897Z,26.27
2022-11-28T16:33:35.934Z,26.73
2022-11-28T16:36:12.714Z,26.50
2022-11-28T16:38:41.100Z,27.77
2022-11-28T16:41:16.270Z,31.13
2022-11-28T16:43:47.396Z,26.43
2022-11-28T16:46:21.767Z,28.63
2022-11-28T16:48:55.466Z,28.03
2022-11-28T16:51:44.289Z,25.47
2022-11-28T16:54:31.806Z,24.47
2022-11-28T16:57:11.429Z,26.43
2022-11-28T16:59:39.369Z,27.33
2022-11-28T17:02:14.885Z,22.83
2022-11-28T17:04:44.989Z,23.60
2022-11-28T17:07:14.858Z,23.27
2022-11-28T17:09:43.225Z,24.70
2022-11-28T17:12:18.078Z,24.03
2022-11-28T17:14:46.083Z,28.53
2022-11-28T17:17:15.661Z,25.30
2022-11-28T17:19:46.214Z,25.03
2022-11-28T17:22:16.739Z,24.67
2022-11-28T17:24:44.879Z,24.00
2022-11-28T17:27:14.116Z,27.67
2022-11-28T17:29:42.472Z,24.70
2022-11-28T17:32:13.434Z,26.97
2022-11-28T17:34:42.725Z,26.03
2022-11-28T17:37:12.309Z,30.83
2022-11-28T17:40:00.215Z,31.57
2022-11-28T17:42:28.035Z,28.63
2022-11-28T17:44:55.932Z,31.13
2022-11-28T17:47:23.964Z,31.83
2022-11-28T17:49:52.259Z,26.60
2022-11-28T17:52:21.531Z,31.53
2022-11-28T17:54:49.599Z,31.50
2022-11-28T17:57:17.486Z,35.63
2022-11-28T17:59:45.640Z,29.73
2022-11-28T18:02:13.725Z,30.23
2022-11-28T18:04:41.622Z,28.93
2022-11-28T18:07:09.559Z,28.00
2022-11-28T18:09:38.934Z,27.37
2022-11-28T18:12:07.262Z,29.23
2022-11-28T18:14:39.643Z,25.70
2022-11-28T18:17:07.832Z,32.63
2022-11-28T18:19:35.847Z,29.07
2022-11-28T18:22:04.005Z,32.63
2022-11-28T18:24:34.492Z,30.10
2022-11-28T18:27:03.755Z,27.37
2022-11-28T18:29:31.666Z,26.73
2022-11-28T18:32:00.403Z,28.90
2022-11-28T18:34:28.332Z,26.63
2022-11-28T18:37:00.697Z,27.00
2022-11-28T18:39:28.639Z,32.17
2022-11-28T18:41:56.559Z,30.80
2022-11-28T18:44:25.806Z,33.83
2022-11-28T18:46:53.733Z,34.93
2022-11-28T18:49:21.795Z,33.10
2022-11-28T18:51:49.642Z,36.53
2022-11-28T18:54:21.126Z,34.53
2022-11-28T18:56:49.695Z,36.10
2022-11-28T18:59:18.852Z,31.10
2022-11-28T19:01:48.265Z,33.20
2022-11-28T19:04:16.862Z,34.70
2022-11-28T19:06:45.452Z,40.00
2022-11-28T19:09:15.653Z,34.87
2022-11-28T19:11:44.585Z,36.83
2022-11-28T19:14:16.166Z,38.87
2022-11-28T19:16:45.056Z,38.93
2022-11-28T19:19:14.273Z,38.53
2022-11-28T19:21:43.118Z,40.67
2022-11-28T19:24:13.571Z,38.57
2022-11-28T19:26:41.878Z,38.20
2022-11-28T19:29:09.753Z,45.70
2022-11-28T19:31:39.453Z,38.67
2022-11-28T19:34:08.980Z,34.70
2022-11-28T19:36:41.069Z,35.43
2022-11-28T19:39:09.520Z,31.73
2022-11-28T19:41:37.430Z,39.63
2022-11-28T19:44:05.531Z,31.27
2022-11-28T19:46:35.698Z,33.73
2022-11-28T19:49:04.385Z,35.03
2022-11-28T19:51:32.422Z,32.93
2022-11-28T19:54:03.890Z,35.00
2022-11-28T19:56:32.420Z,29.83
2022-11-28T19:59:00.727Z,32.27
2022-11-28T20:01:29.013Z,27.37
2022-11-28T20:03:58.670Z,24.80
2022-11-28T20:06:28.887Z,30.07
2022-11-28T20:08:59.575Z,26.70
2022-11-28T20:11:31.050Z,28.47
2022-11-28T20:14:00.194Z,31.60
2022-11-28T20:16:30.138Z,31.60
2022-11-28T20:19:00.256Z,27.43
2022-11-28T20:21:28.580Z,31.73
2022-11-28T20:23:59.507Z,30.20
2022-11-28T20:26:30.008Z,27.23
2022-11-28T20:28:58.457Z,23.47
2022-11-28T20:31:28.385Z,32.07
2022-11-28T20:33:56.329Z,29.77
2022-11-28T20:36:26.116Z,30.50
2022-11-28T20:38:55.696Z,35.97
2022-11-28T20:41:25.336Z,30.17
2022-11-28T20:43:54.713Z,32.07
2022-11-28T20:46:25.122Z,27.83
2022-11-28T20:48:53.061Z,29.87
2022-11-28T20:51:22.318Z,28.33
2022-11-28T20:53:50.342Z,29.53
2022-11-28T20:56:20.057Z,32.37
2022-11-28T20:58:48.363Z,28.67
2022-11-28T21:01:19.344Z,27.83
2022-11-28T21:03:47.533Z,28.10
2022-11-28T21:06:15.708Z,26.73
2022-11-28T21:08:44.003Z,26.50
2022-11-28T21:11:30.473Z,27.97
2022-11-28T21:14:02.744Z,26.20
2022-11-28T21:16:33.887Z,23.80
2022-11-28T21:19:05.224Z,24.07
2022-11-28T21:21:34.845Z,26.27
2022-11-28T21:24:04.300Z,21.83
2022-11-28T21:26:39.135Z,19.53
2022-11-28T21:29:09.855Z,19.70
2022-11-28T21:31:42.707Z,24.37
2022-11-28T21:34:14.105Z,22.77
2022-11-28T21:36:42.320Z,19.80
2022-11-28T21:39:13.611Z,23.53
2022-11-28T21:41:41.605Z,19.00
2022-11-28T21:44:09.869Z,17.00
2022-11-28T21:46:39.141Z,17.80
2022-11-28T21:49:07.025Z,19.20
2022-11-28T21:51:34.856Z,19.70
2022-11-28T21:54:02.769Z,16.40
2022-11-28T21:56:30.683Z,16.70
2022-11-28T21:58:58.531Z,17.83
2022-11-28T22:01:26.546Z,16.03
2022-11-28T22:04:01.909Z,17.70
2022-11-28T22:06:30.918Z,16.80
2022-11-28T22:08:58.936Z,14.23
2022-11-28T22:11:27.245Z,15.90
2022-11-28T22:13:55.123Z,15.57
2022-11-28T22:16:24.932Z,16.40
2022-11-28T22:18:56.367Z,16.47
2022-11-28T22:24:12.351Z,15.47
2022-11-28T22:26:40.253Z,16.40
2022-11-28T22:29:08.199Z,16.23
2022-11-28T22:31:36.477Z,15.90
2022-11-28T22:34:05.732Z,15.77
2022-11-28T22:36:34.342Z,17.03
2022-11-28T22:39:02.759Z,18.47
2022-11-28T22:41:30.871Z,17.10
2022-11-28T22:44:00.398Z,17.17
2022-11-28T22:46:28.989Z,18.50
2022-11-28T22:48:56.933Z,18.77
2022-11-28T22:51:27.849Z,17.87
2022-11-28T22:53:56.220Z,18.43
2022-11-28T22:56:24.292Z,19.70
2022-11-28T22:58:52.725Z,21.20
2022-11-28T23:01:22.749Z,20.93
2022-11-28T23:03:50.765Z,19.03
2022-11-28T23:06:21.100Z,20.33
2022-11-28T23:08:50.806Z,21.70
2022-11-28T23:11:20.875Z,21.57
2022-11-28T23:13:49.545Z,22.70
2022-11-28T23:16:19.184Z,21.73
2022-11-28T23:18:49.976Z,22.17
2022-11-28T23:21:19.760Z,24.73
2022-11-28T23:23:47.881Z,24.47
2022-11-28T23:26:18.605Z,24.47
2022-11-28T23:28:46.918Z,22.90
2022-11-28T23:31:18.386Z,25.40
2022-11-28T23:33:46.933Z,25.80
2022-11-28T23:36:16.597Z,25.70
2022-11-28T23:38:46.084Z,24.60
2022-11-28T23:41:14.495Z,25.57
2022-11-28T23:43:44.121Z,30.60
2022-11-28T23:46:13.020Z,32.43
2022-11-28T23:48:42.527Z,32.13
2022-11-28T23:51:12.745Z,34.37
2022-11-28T23:53:41.904Z,32.10
2022-11-28T23:56:12.164Z,37.80
2022-11-28T23:58:40.456Z,40.03
